Flight Track Log - Related Links

Times and Time Zones

All times are in EDT time to prevent confusion due to time zone crossing. See the CTL21 flight status page for this flight to view local times or setup timezone preferences in your user account.

Time Position Orientation Groundspeed Altitude Reporting Facility
EDT Latitude Longitude Course Direction KTS MPH feet Rate Location/Type
Wed 05:23:23 PM 42.1611 -85.4033 118° Southeast 133 153 3,900  Level Chicago Center
Wed 05:24:25 PM 42.1406 -85.3506 118° Southeast 133 153 4,600 581 Climbing Chicago Center
Wed 05:25:27 PM 42.1244 -85.3056 116° Southeast 133 153 5,100 484 Climbing Chicago Center
Wed 05:26:00 PM 42.1773 -85.2120 103° East  Level Estimated
Wed 05:26:29 PM 42.1086 -85.2578 114° Southeast 137 158 5,600  Level Chicago Center
Wed 05:27:00 PM 42.1676 -85.1554 103° East  Level Estimated
Wed 05:27:31 PM 42.0906 -85.2100 117° Southeast 141 162 6,100  Level Chicago Center
Wed 05:28:33 PM 42.0728 -85.1672 119° Southeast 135 155 6,700 532 Climbing Chicago Center
Wed 05:29:35 PM 42.0547 -85.1228 119° Southeast 135 155 7,200 581 Climbing Chicago Center
Wed 05:30:37 PM 42.0328 -85.0667 118° Southeast 139 160 7,900 581 Climbing Chicago Center
Wed 05:31:39 PM 42.0139 -85.0219 120° Southeast 138 159 8,400 532 Climbing Chicago Center
Wed 05:32:41 PM 41.9964 -84.9764 117° Southeast 138 159 9,000 288 Climbing Chicago Center
Wed 05:33:44 PM 41.9764 -84.9281 119° Southeast 143 165 9,000  Level Chicago Center
Wed 05:34:46 PM 41.9547 -84.8739 118° Southeast 157 181 9,000  Level Chicago Center
Wed 05:35:48 PM 41.9344 -84.8189 116° Southeast 162 186 9,000  Level Chicago Center
Wed 05:36:50 PM 41.9111 -84.7544 116° Southeast 160 184 9,000  Level Chicago Center
Wed 05:37:52 PM 41.8900 -84.7042 119° Southeast 157 181 9,000  Level Chicago Center
Wed 05:38:54 PM 41.8683 -84.6519 119° Southeast 158 182 9,000  Level Chicago Center
Wed 05:39:56 PM 41.8478 -84.6017 119° Southeast 155 178 9,000  Level Chicago Center
Wed 05:40:58 PM 41.8261 -84.5494 119° Southeast 158 182 9,000  Level Chicago Center
Wed 05:42:00 PM 41.8058 -84.4986 118° Southeast 156 180 9,000  Level Chicago Center
Wed 05:43:02 PM 41.7806 -84.4372 119° Southeast 156 180 9,000  Level Chicago Center
Wed 05:44:04 PM 41.7586 -84.3861 120° Southeast 157 181 9,000  Level Chicago Center
Wed 05:45:07 PM 41.7386 -84.3369 119° Southeast 153 176 9,000  Level Chicago Center
Wed 05:46:09 PM 41.7183 -84.2869 119° Southeast 153 176 9,000  Level Chicago Center
Wed 05:47:11 PM 41.6981 -84.2369 118° Southeast 153 176 9,000  Level Chicago Center
Wed 05:49:00 PM 41.6606 -84.1451 119° Southeast  Level FlightAware Approximate
Wed 05:56:00 PM 41.5159 -83.7924 119° Southeast  Level FlightAware Approximate
Wed 05:57:00 PM 41.4951 -83.7421 119° Southeast  Level FlightAware Approximate
Wed 05:58:00 PM 41.4743 -83.6919 119° Southeast  Level FlightAware Approximate
Wed 05:59:00 PM 41.4535 -83.6417 119° Southeast  Level FlightAware Approximate
Wed 06:00:00 PM 41.4489 -83.5855 92° East  Level FlightAware Approximate
Wed 06:00:22 PM 41.5561 -83.4886 92° East 164 189 9,000  Level Cleveland Center
Wed 06:01:00 PM 41.4476 -83.5282 92° East  Level FlightAware Approximate
Wed 06:01:22 PM 41.5472 -83.4300 101° East 164 189 9,000  Level Cleveland Center
Wed 06:02:00 PM 41.4462 -83.4708 92° East  Level FlightAware Approximate
Wed 06:02:22 PM 41.5403 -83.3742 99° East 164 189 9,000  Level Cleveland Center
Wed 06:03:00 PM 41.4448 -83.4135 92° East  Level FlightAware Approximate
Wed 06:03:22 PM 41.5311 -83.3153 102° East 164 189 9,000  Level Cleveland Center
Wed 06:04:00 PM 41.4434 -83.3562 92° East  Level FlightAware Approximate
Wed 06:04:22 PM 41.5222 -83.2594 102° East 164 189 9,000  Level Cleveland Center
Wed 06:05:22 PM 41.5153 -83.2011 99° East 164 189 8,900  Descending Cleveland Center
Wed 06:06:22 PM 41.5061 -83.1453 102° East 164 189 9,000 50 Climbing Cleveland Center
Wed 06:07:22 PM 41.4992 -83.0839 99° East 164 189 9,000 -50 Level Cleveland Center
Wed 06:08:22 PM 41.4897 -83.0281 103° East 164 189 8,900 -50 Descending Cleveland Center
Wed 06:09:22 PM 41.4828 -82.9725 99° East 159 183 8,900 160 Level Cleveland Center
Wed 06:09:37 PM 41.4786 -82.9611 116° Southeast 156 180 9,100 267 Climbing Cleveland Center
Wed 06:10:07 PM 41.4731 -82.9333 105° East 157 181 9,100 -267 Level Cleveland Center
Wed 06:10:22 PM 41.4733 -82.9194 88° East 159 183 8,900  Descending Cleveland Center
Wed 06:11:08 PM 41.4658 -82.8747 103° East 158 182 9,100 56 Climbing Cleveland Center
Wed 06:12:09 PM 41.4586 -82.8192 100° East 158 182 9,000  Descending Cleveland Center
Wed 06:13:10 PM 41.4494 -82.7550 101° East 158 182 9,100 49 Climbing Cleveland Center
Wed 06:14:11 PM 41.4381 -82.6992 105° East 155 178 9,100  Level Cleveland Center
Wed 06:15:12 PM 41.4347 -82.6439 95° East 159 183 9,100  Level Cleveland Center
Wed 06:16:12 PM 41.4381 -82.5858 86° East 158 182 9,100  Level Cleveland Center
Wed 06:17:13 PM 41.4536 -82.5281 70° East 156 180 9,100 -246 Level Cleveland Center
Wed 06:18:14 PM 41.4692 -82.4703 70° East 168 193 8,600 -492 Descending Cleveland Center
Wed 06:19:15 PM 41.4847 -82.4069 72° East 175 201 8,100 -492 Descending Cleveland Center
Wed 06:20:16 PM 41.5003 -82.3464 71° East 176 203 7,600 -541 Descending Cleveland Center
Wed 06:21:17 PM 41.5178 -82.2831 70° East 175 201 7,000 -639 Descending Cleveland Center
Wed 06:22:18 PM 41.5314 -82.2225 73° East 172 198 6,300 -793 Descending Cleveland Center
Wed 06:23:18 PM 41.5489 -82.1592 70° East 176 203 5,400 -1,388 Descending Cleveland Center
Wed 06:24:19 PM 41.5644 -82.0928 73° East 199 229 3,500 -1,721 Descending Cleveland Center
Wed 06:25:20 PM 41.5592 -82.0150 95° East 186 214 1,900 -836 Descending Cleveland Center
Wed 06:26:21 PM 41.5536 -81.9594 98° East 139 160 1,800 -98 Descending Cleveland Center
Wed 06:27:22 PM 41.5519 -81.9067 92° East 136 157 1,700 -99 Descending Cleveland Center
Wed 06:28:22 PM 41.5442 -81.8594 102° East 142 163 1,600 -50 Descending Cleveland Center
Wed 06:29:23 PM 41.5344 -81.8092 104° East 136 157 1,600  Level Cleveland Center
Wed 06:30:24 PM 41.5267 -81.7647 103° East 123 142 1,600 -197 Level Cleveland Center
Wed 06:31:25 PM 41.5167 -81.7172 106° East 128 147 1,200 -393 Descending Cleveland Center
Wed 06:33:00 PM 41.5175 -81.6833 72° East  Level Estimated

Login

Don't have an account? Register now (free) for customized features, flight alerts, and more!